createdAt,value
2023-03-29T00:01:35.035Z,100595.50
2023-03-29T00:04:04.928Z,100598.13
2023-03-29T00:06:33.359Z,100598.06
2023-03-29T00:09:05.290Z,100598.97
2023-03-29T00:11:33.931Z,100587.69
2023-03-29T00:14:02.295Z,100592.03
2023-03-29T00:16:32.177Z,100593.69
2023-03-29T00:19:00.401Z,100596.34
2023-03-29T00:21:28.482Z,100603.31
2023-03-29T00:23:57.410Z,100596.31
2023-03-29T00:26:25.506Z,100594.59
2023-03-29T00:28:53.576Z,100610.31
2023-03-29T00:31:21.890Z,100597.22
2023-03-29T00:33:51.385Z,100593.69
2023-03-29T00:36:19.829Z,100600.69
2023-03-29T00:38:47.970Z,100601.53
2023-03-29T00:41:16.481Z,100601.59
2023-03-29T00:43:55.451Z,100608.56
2023-03-29T00:46:23.727Z,100608.53
2023-03-29T00:48:55.807Z,100610.31
2023-03-29T00:51:28.866Z,100614.66
2023-03-29T00:54:00.968Z,100619.00
2023-03-29T00:56:32.327Z,100611.16
2023-03-29T00:59:04.943Z,100626.81
2023-03-29T01:01:42.539Z,100626.81
2023-03-29T01:04:18.607Z,100626.81
2023-03-29T01:06:54.507Z,100630.28
2023-03-29T01:09:27.092Z,100621.59
2023-03-29T01:11:58.050Z,100607.66
2023-03-29T01:14:35.290Z,100594.53
2023-03-29T01:17:05.473Z,100598.00
2023-03-29T01:19:41.749Z,100596.22
2023-03-29T01:22:18.432Z,100618.88
2023-03-29T01:24:56.681Z,100619.75
2023-03-29T01:27:41.566Z,100618.88
2023-03-29T01:30:15.289Z,100615.41
2023-03-29T01:32:47.938Z,100629.31
2023-03-29T01:35:23.117Z,100637.16
2023-03-29T01:37:57.769Z,100633.66
2023-03-29T01:40:28.142Z,100631.91
2023-03-29T01:43:05.586Z,100639.78
2023-03-29T01:45:40.146Z,100634.53
2023-03-29T01:48:12.132Z,100638.00
2023-03-29T01:50:45.639Z,100644.03
2023-03-29T01:53:19.085Z,100630.13
2023-03-29T01:55:50.614Z,100632.75
2023-03-29T01:58:23.485Z,100641.41
2023-03-29T02:00:55.452Z,100639.69
2023-03-29T02:03:27.593Z,100630.09
2023-03-29T02:05:58.399Z,100624.03
2023-03-29T02:08:31.002Z,100617.09
2023-03-29T02:10:59.374Z,100613.59
2023-03-29T02:13:29.190Z,100613.59
2023-03-29T02:16:00.117Z,100610.91
2023-03-29T02:18:28.969Z,100608.31
2023-03-29T02:20:59.072Z,100604.81
2023-03-29T02:23:34.401Z,100606.56
2023-03-29T02:26:03.945Z,100597.00
2023-03-29T02:28:34.394Z,100591.78
2023-03-29T02:31:06.988Z,100594.38
2023-03-29T02:33:46.557Z,100603.94
2023-03-29T02:36:20.873Z,100616.09
2023-03-29T02:38:49.391Z,100618.69
2023-03-29T02:41:18.165Z,100608.22
2023-03-29T02:43:49.517Z,100612.59
2023-03-29T02:46:19.683Z,100607.38
2023-03-29T02:48:52.204Z,100612.59
2023-03-29T02:51:23.530Z,100622.19
2023-03-29T02:53:59.300Z,100627.41
2023-03-29T02:56:27.658Z,100625.69
2023-03-29T02:58:57.031Z,100633.56
2023-03-29T03:01:26.250Z,100637.00
2023-03-29T03:03:54.460Z,100634.44
2023-03-29T03:06:22.951Z,100634.44
2023-03-29T03:08:51.796Z,100650.94
2023-03-29T03:11:19.948Z,100648.31
2023-03-29T03:13:48.212Z,100654.44
2023-03-29T03:16:18.036Z,100651.81
2023-03-29T03:18:46.261Z,100660.56
2023-03-29T03:21:14.400Z,100662.25
2023-03-29T03:23:42.396Z,100666.66
2023-03-29T03:26:10.866Z,100670.13
2023-03-29T03:28:41.022Z,100671.88
2023-03-29T03:31:14.978Z,100691.91
2023-03-29T03:34:07.091Z,100695.44
2023-03-29T03:36:57.011Z,100696.28
2023-03-29T03:39:25.124Z,100699.78
2023-03-29T03:41:53.511Z,100687.53
2023-03-29T03:44:22.149Z,100686.69
2023-03-29T03:47:07.971Z,100685.81
2023-03-29T03:49:39.213Z,100683.22
2023-03-29T03:52:07.860Z,100689.31
2023-03-29T03:54:36.106Z,100689.31
2023-03-29T03:57:27.364Z,100682.34
2023-03-29T03:59:56.300Z,100685.81
2023-03-29T04:02:29.904Z,100686.66
2023-03-29T04:05:03.089Z,100679.72
2023-03-29T04:07:36.098Z,100680.59
2023-03-29T04:10:26.977Z,100682.31
2023-03-29T04:13:05.014Z,100683.16
2023-03-29T04:15:38.490Z,100684.84
2023-03-29T04:18:10.857Z,100690.97
2023-03-29T04:20:47.855Z,100691.81
2023-03-29T04:23:19.591Z,100688.38
2023-03-29T04:25:47.767Z,100687.47
2023-03-29T04:28:40.110Z,100678.72
2023-03-29T04:31:13.555Z,100671.81
2023-03-29T04:34:00.770Z,100678.75
2023-03-29T04:36:31.201Z,100687.47
2023-03-29T04:39:01.482Z,100673.53
2023-03-29T04:41:30.266Z,100684.84
2023-03-29T04:44:12.345Z,100680.50
2023-03-29T04:46:40.755Z,100689.19
2023-03-29T04:49:27.950Z,100689.22
2023-03-29T04:51:58.036Z,100687.53
2023-03-29T04:54:29.426Z,100697.09
2023-03-29T04:57:18.187Z,100703.22
2023-03-29T04:59:56.850Z,100698.88
2023-03-29T05:03:00.564Z,100698.00
2023-03-29T05:05:31.886Z,100694.56
2023-03-29T05:08:04.767Z,100692.78
2023-03-29T05:10:43.483Z,100696.31
2023-03-29T05:13:12.509Z,100704.19
2023-03-29T05:15:42.967Z,100700.69
2023-03-29T05:18:11.639Z,100707.69
2023-03-29T05:20:40.574Z,100697.25
2023-03-29T05:23:12.619Z,100679.81
2023-03-29T05:26:08.074Z,100690.31
2023-03-29T05:28:36.653Z,100698.16
2023-03-29T05:31:06.855Z,100698.19
2023-03-29T05:33:39.709Z,100704.28
2023-03-29T05:36:13.705Z,100701.72
2023-03-29T05:38:47.873Z,100713.03
2023-03-29T05:41:17.919Z,100719.13
2023-03-29T05:44:04.804Z,100723.53
2023-03-29T05:46:33.180Z,100732.25
2023-03-29T05:49:04.571Z,100733.16
2023-03-29T05:52:02.536Z,100728.78
2023-03-29T05:54:33.777Z,100735.81
2023-03-29T05:57:03.214Z,100744.56
2023-03-29T05:59:32.199Z,100738.47
2023-03-29T06:02:03.174Z,100743.72
2023-03-29T06:04:31.869Z,100728.91
2023-03-29T06:07:20.058Z,100731.59
2023-03-29T06:10:10.805Z,100730.72
2023-03-29T06:12:41.915Z,100735.13
2023-03-29T06:15:11.425Z,100730.75
2023-03-29T06:17:47.315Z,100734.25
2023-03-29T06:20:17.249Z,100740.38
2023-03-29T06:22:50.697Z,100743.84
2023-03-29T06:25:20.831Z,100744.78
2023-03-29T06:27:52.114Z,100745.63
2023-03-29T06:30:21.695Z,100739.56
2023-03-29T06:32:53.502Z,100741.31
2023-03-29T06:35:49.494Z,100746.59
2023-03-29T06:38:21.881Z,100748.34
2023-03-29T06:41:20.090Z,100751.91
2023-03-29T06:44:14.576Z,100748.44
2023-03-29T06:46:56.599Z,100744.09
2023-03-29T06:49:26.234Z,100750.22
2023-03-29T06:52:12.284Z,100755.47
2023-03-29T06:54:41.254Z,100749.41
2023-03-29T06:57:13.316Z,100743.31
2023-03-29T06:59:42.463Z,100735.47
2023-03-29T07:02:29.009Z,100726.75
2023-03-29T07:05:06.854Z,100722.44
2023-03-29T07:07:53.757Z,100719.81
2023-03-29T07:10:32.839Z,100731.19
2023-03-29T07:13:06.155Z,100726.81
2023-03-29T07:15:34.880Z,100715.47
2023-03-29T07:18:32.629Z,100734.69
2023-03-29T07:21:01.557Z,100737.28
2023-03-29T07:23:29.910Z,100759.97
2023-03-29T07:25:58.364Z,100766.94
2023-03-29T07:28:29.286Z,100774.81
2023-03-29T07:31:04.851Z,100785.31
2023-03-29T07:33:33.457Z,100786.19
2023-03-29T07:36:06.524Z,100789.72
2023-03-29T07:38:36.926Z,100781.00
2023-03-29T07:41:11.466Z,100787.09
2023-03-29T07:43:51.905Z,100780.13
2023-03-29T07:46:25.256Z,100775.78
2023-03-29T07:48:53.688Z,100775.78
2023-03-29T07:51:22.387Z,100766.19
2023-03-29T07:53:54.352Z,100781.88
2023-03-29T07:56:42.730Z,100778.41
2023-03-29T07:59:15.177Z,100774.91
2023-03-29T08:01:45.322Z,100778.41
2023-03-29T08:04:28.153Z,100778.41
2023-03-29T08:07:18.803Z,100774.91
2023-03-29T08:10:13.777Z,100778.41
2023-03-29T08:13:14.348Z,100775.78
2023-03-29T08:16:08.895Z,100767.06
2023-03-29T08:18:42.364Z,100767.06
2023-03-29T08:21:11.151Z,100765.31
2023-03-29T08:23:39.170Z,100756.59
2023-03-29T08:26:17.503Z,100762.69
2023-03-29T08:28:47.136Z,100769.69
2023-03-29T08:31:18.117Z,100767.94
2023-03-29T08:33:47.085Z,100767.94
2023-03-29T08:36:40.844Z,100778.44
2023-03-29T08:39:17.864Z,100781.94
2023-03-29T08:42:02.716Z,100788.91
2023-03-29T08:44:48.934Z,100779.31
2023-03-29T08:47:25.467Z,100774.06
2023-03-29T08:49:56.367Z,100776.69
2023-03-29T08:52:36.802Z,100776.69
2023-03-29T08:55:25.517Z,100783.69
2023-03-29T08:58:19.717Z,100792.44
2023-03-29T09:00:53.095Z,100795.91
2023-03-29T09:03:25.268Z,100795.91
2023-03-29T09:06:00.257Z,100802.91
2023-03-29T09:08:28.616Z,100806.41
2023-03-29T09:11:13.696Z,100808.13
2023-03-29T09:13:50.040Z,100809.91
2023-03-29T09:16:24.441Z,100812.50
2023-03-29T09:19:03.737Z,100814.28
2023-03-29T09:21:42.057Z,100809.03
2023-03-29T09:24:21.877Z,100806.38
2023-03-29T09:27:01.816Z,100798.53
2023-03-29T09:29:50.960Z,100795.03
2023-03-29T09:32:24.047Z,100790.66
2023-03-29T09:35:09.911Z,100796.75
2023-03-29T09:37:41.265Z,100794.13
2023-03-29T09:40:14.428Z,100781.91
2023-03-29T09:43:09.152Z,100767.91
2023-03-29T09:45:39.334Z,100754.84
2023-03-29T09:48:12.626Z,100753.94
2023-03-29T09:50:46.886Z,100739.09
2023-03-29T09:53:15.907Z,100733.00
2023-03-29T09:55:52.373Z,100740.84
2023-03-29T09:58:32.829Z,100747.81
2023-03-29T10:01:04.659Z,100755.69
2023-03-29T10:03:34.927Z,100751.31
2023-03-29T10:06:14.641Z,100751.34
2023-03-29T10:08:51.878Z,100738.22
2023-03-29T10:11:24.557Z,100741.75
2023-03-29T10:13:57.455Z,100751.34
2023-03-29T10:16:29.522Z,100766.19
2023-03-29T10:18:57.650Z,100769.69
2023-03-29T10:21:30.511Z,100762.72
2023-03-29T10:23:59.583Z,100771.44
2023-03-29T10:26:30.945Z,100766.19
2023-03-29T10:29:01.636Z,100773.16
2023-03-29T10:31:33.116Z,100766.19
2023-03-29T10:34:05.023Z,100770.53
2023-03-29T10:36:35.586Z,100770.56
2023-03-29T10:39:06.343Z,100776.66
2023-03-29T10:41:36.496Z,100774.06
2023-03-29T10:44:05.272Z,100765.31
2023-03-29T10:46:41.641Z,100781.91
2023-03-29T10:49:18.832Z,100779.28
2023-03-29T10:51:50.822Z,100779.28
2023-03-29T10:54:22.318Z,100786.25
2023-03-29T10:56:54.858Z,100785.38
2023-03-29T10:59:29.898Z,100787.13
2023-03-29T11:02:32.227Z,100794.94
2023-03-29T11:05:17.110Z,100794.06
2023-03-29T11:07:57.144Z,100805.38
2023-03-29T11:10:36.744Z,100814.09
2023-03-29T11:13:33.140Z,100824.56
2023-03-29T11:16:11.923Z,100840.19
2023-03-29T11:19:15.649Z,100860.25
2023-03-29T11:21:51.204Z,100868.03
2023-03-29T11:24:34.677Z,100878.53
2023-03-29T11:27:13.794Z,100897.69
2023-03-29T11:29:54.514Z,100886.28
2023-03-29T11:32:29.106Z,100892.41
2023-03-29T11:35:06.965Z,100888.91
2023-03-29T11:37:43.283Z,100890.72
2023-03-29T11:40:31.663Z,100886.31
2023-03-29T11:43:04.622Z,100889.78
2023-03-29T11:45:37.571Z,100883.66
2023-03-29T11:48:12.253Z,100886.28
2023-03-29T11:50:47.647Z,100884.47
2023-03-29T11:53:20.990Z,100884.50
2023-03-29T11:55:52.354Z,100887.94
2023-03-29T11:58:24.557Z,100889.69
2023-03-29T12:00:57.996Z,100890.53
2023-03-29T12:03:37.201Z,100887.91
2023-03-29T12:06:13.998Z,100896.63
2023-03-29T12:08:47.267Z,100883.56
2023-03-29T12:11:20.719Z,100885.31
2023-03-29T12:13:53.769Z,100884.44
2023-03-29T12:16:29.175Z,100879.28
2023-03-29T12:18:59.172Z,100871.44
2023-03-29T12:21:30.152Z,100865.34
2023-03-29T12:23:59.496Z,100869.78
2023-03-29T12:26:53.744Z,100866.28
2023-03-29T12:29:37.710Z,100874.13
2023-03-29T12:32:23.088Z,100860.19
2023-03-29T12:35:15.389Z,100866.28
2023-03-29T12:38:10.715Z,100856.66
2023-03-29T12:41:15.349Z,100855.78
2023-03-29T12:44:05.084Z,100854.00
2023-03-29T12:46:55.848Z,100855.72
2023-03-29T12:49:31.497Z,100853.97
2023-03-29T12:52:02.496Z,100866.19
2023-03-29T12:54:34.380Z,100862.69
2023-03-29T12:57:04.492Z,100862.72
2023-03-29T12:59:40.655Z,100868.84
2023-03-29T13:02:37.056Z,100872.34
2023-03-29T13:05:07.587Z,100875.84
2023-03-29T13:07:47.453Z,100877.63
2023-03-29T13:10:40.784Z,100874.16
2023-03-29T13:13:22.147Z,100872.47
2023-03-29T13:15:51.730Z,100871.56
2023-03-29T13:18:42.557Z,100877.69
2023-03-29T13:21:21.198Z,100870.66
2023-03-29T13:23:59.891Z,100870.69
2023-03-29T13:26:43.082Z,100881.13
2023-03-29T13:29:38.789Z,100875.88
2023-03-29T13:32:23.240Z,100878.50
2023-03-29T13:34:58.760Z,100874.13
2023-03-29T13:37:40.218Z,100881.94
2023-03-29T13:40:29.547Z,100867.94
2023-03-29T13:43:00.217Z,100874.94
2023-03-29T13:45:30.295Z,100869.63
2023-03-29T13:48:21.661Z,100873.13
2023-03-29T13:50:54.877Z,100880.97
2023-03-29T13:53:30.103Z,100873.09
2023-03-29T13:55:59.378Z,100863.50
2023-03-29T13:58:37.526Z,100860.88
2023-03-29T14:01:13.013Z,100865.19
2023-03-29T14:03:46.095Z,100871.19
2023-03-29T14:06:16.909Z,100873.81
2023-03-29T14:08:45.905Z,100857.22
2023-03-29T14:11:23.333Z,100859.84
2023-03-29T14:13:54.551Z,100857.19
2023-03-29T14:16:23.232Z,100851.03
2023-03-29T14:18:52.999Z,100848.47
2023-03-29T14:21:22.120Z,100858.91
2023-03-29T14:23:57.012Z,100867.56
2023-03-29T14:26:31.436Z,100859.66
2023-03-29T14:29:02.947Z,100864.91
2023-03-29T14:31:33.397Z,100869.25
2023-03-29T14:34:05.320Z,100866.66
2023-03-29T14:36:34.407Z,100857.06
2023-03-29T14:39:05.643Z,100857.94
2023-03-29T14:41:36.799Z,100872.69
2023-03-29T14:44:07.650Z,100869.19
2023-03-29T14:46:36.843Z,100869.16
2023-03-29T14:49:07.364Z,100863.91
2023-03-29T14:51:36.975Z,100859.56
2023-03-29T14:54:06.556Z,100849.88
2023-03-29T14:56:35.546Z,100854.16
2023-03-29T14:59:05.942Z,100852.41
2023-03-29T15:01:34.126Z,100860.13
2023-03-29T15:04:06.272Z,100864.47
2023-03-29T15:06:39.922Z,100865.28
2023-03-29T15:09:12.185Z,100862.63
2023-03-29T15:11:40.857Z,100869.56
2023-03-29T15:14:15.566Z,100867.78
2023-03-29T15:16:47.507Z,100860.78
2023-03-29T15:19:19.349Z,100866.84
2023-03-29T15:21:51.308Z,100868.53
2023-03-29T15:24:23.151Z,100867.59
2023-03-29T15:27:03.542Z,100861.53
2023-03-29T15:29:40.094Z,100859.81
2023-03-29T15:32:08.623Z,100874.56
2023-03-29T15:34:38.380Z,100879.75
2023-03-29T15:37:08.130Z,100872.78
2023-03-29T15:39:40.218Z,100884.06
2023-03-29T15:42:10.369Z,100879.63
2023-03-29T15:44:40.039Z,100887.41
2023-03-29T15:47:10.732Z,100877.88
2023-03-29T15:49:39.061Z,100871.75
2023-03-29T15:52:08.650Z,100876.09
2023-03-29T15:54:37.284Z,100875.19
2023-03-29T15:57:07.912Z,100883.00
2023-03-29T15:59:36.471Z,100884.69
2023-03-29T16:02:05.298Z,100882.09
2023-03-29T16:04:33.449Z,100888.19
2023-03-29T16:07:01.527Z,100895.97
2023-03-29T16:09:31.446Z,100902.91
2023-03-29T16:12:00.445Z,100894.22
2023-03-29T16:14:31.386Z,100905.56
2023-03-29T16:17:00.841Z,100903.75
2023-03-29T16:19:31.259Z,100905.41
2023-03-29T16:22:00.809Z,100908.91
2023-03-29T16:24:32.381Z,100913.28
2023-03-29T16:27:01.356Z,100921.09
2023-03-29T16:29:30.372Z,100920.22
2023-03-29T16:31:58.588Z,100922.84
2023-03-29T16:34:26.864Z,100925.56
2023-03-29T16:36:55.094Z,100927.31
2023-03-29T16:39:23.057Z,100922.91
2023-03-29T16:41:52.627Z,100924.69
2023-03-29T16:44:24.509Z,100924.56
2023-03-29T16:46:53.928Z,100925.44
2023-03-29T16:49:24.274Z,100933.34
2023-03-29T16:51:52.453Z,100932.47
2023-03-29T16:54:20.545Z,100940.31
2023-03-29T16:56:48.661Z,100935.03
2023-03-29T16:59:18.321Z,100949.78
2023-03-29T17:01:46.868Z,100943.72
2023-03-29T17:04:15.118Z,100941.94
2023-03-29T17:06:43.364Z,100953.28
2023-03-29T17:09:11.663Z,100950.59
2023-03-29T17:11:39.785Z,100960.13
2023-03-29T17:14:08.117Z,100966.25
2023-03-29T17:16:37.789Z,100967.13
2023-03-29T17:19:06.143Z,100971.44
2023-03-29T17:21:34.476Z,100968.84
2023-03-29T17:24:02.659Z,100963.63
2023-03-29T17:26:30.921Z,100967.09
2023-03-29T17:28:59.064Z,100971.34
2023-03-29T17:31:27.326Z,100973.09
2023-03-29T17:33:56.783Z,100975.69
2023-03-29T17:36:25.363Z,100963.50
2023-03-29T17:38:54.777Z,100965.22
2023-03-29T17:41:23.007Z,100967.88
2023-03-29T17:43:51.429Z,100973.88
2023-03-29T17:46:22.954Z,100972.06
2023-03-29T17:48:52.079Z,100967.78
2023-03-29T17:51:23.695Z,100971.19
2023-03-29T17:53:52.623Z,100960.75
2023-03-29T17:56:21.673Z,100962.53
2023-03-29T17:58:51.045Z,100972.13
2023-03-29T18:01:20.481Z,100966.78
2023-03-29T18:03:49.337Z,100971.09
2023-03-29T18:06:20.660Z,100967.59
2023-03-29T18:08:50.339Z,100966.69
2023-03-29T18:11:22.858Z,100963.22
2023-03-29T18:13:51.699Z,100966.63
2023-03-29T18:16:20.901Z,100966.50
2023-03-29T18:18:49.648Z,100973.47
2023-03-29T18:21:18.324Z,100967.34
2023-03-29T18:23:47.568Z,100968.13
2023-03-29T18:26:18.214Z,100968.06
2023-03-29T18:28:47.778Z,100978.28
2023-03-29T18:31:16.772Z,100969.53
2023-03-29T18:33:44.863Z,100972.16
2023-03-29T18:36:13.655Z,100966.88
2023-03-29T18:38:43.401Z,100971.97
2023-03-29T18:41:13.544Z,100972.03
2023-03-29T18:43:44.210Z,100978.97
2023-03-29T18:46:12.662Z,100980.63
2023-03-29T18:48:41.811Z,100982.34
2023-03-29T18:51:11.966Z,100981.44
2023-03-29T18:53:41.953Z,100986.72
2023-03-29T18:56:10.214Z,100984.09
2023-03-29T18:58:38.276Z,100982.19
2023-03-29T19:01:10.931Z,100984.84
2023-03-29T19:03:39.457Z,100984.78
2023-03-29T19:06:07.957Z,100988.06
2023-03-29T19:08:37.419Z,100985.47
2023-03-29T19:11:07.784Z,100984.66
2023-03-29T19:13:36.730Z,100989.03
2023-03-29T19:16:05.629Z,100990.75
2023-03-29T19:18:35.747Z,100990.75
2023-03-29T19:21:03.930Z,100994.16
2023-03-29T19:23:32.179Z,100990.66
2023-03-29T19:26:02.756Z,100994.91
2023-03-29T19:28:31.572Z,101008.75
2023-03-29T19:31:01.445Z,100995.69
2023-03-29T19:33:30.320Z,101001.78
2023-03-29T19:36:00.202Z,101008.81
2023-03-29T19:38:28.451Z,101008.81
2023-03-29T19:40:56.618Z,101002.56
2023-03-29T19:43:25.168Z,100997.38
2023-03-29T19:45:53.320Z,101001.75
2023-03-29T19:48:22.979Z,101004.31
2023-03-29T19:50:52.420Z,101006.81
2023-03-29T19:53:23.233Z,101013.84
2023-03-29T19:55:52.502Z,101009.53
2023-03-29T19:58:20.706Z,101010.31
2023-03-29T20:00:50.700Z,101018.19
2023-03-29T20:03:18.909Z,101014.63
2023-03-29T20:05:47.415Z,101018.94
2023-03-29T20:08:15.497Z,101015.44
2023-03-29T20:10:45.312Z,101022.38
2023-03-29T20:13:15.791Z,101027.47
2023-03-29T20:15:50.901Z,101027.47
2023-03-29T20:18:20.492Z,101028.25
2023-03-29T20:20:51.113Z,101032.63
2023-03-29T20:23:20.719Z,101042.06
2023-03-29T20:25:51.482Z,101040.41
2023-03-29T20:28:21.337Z,101034.19
2023-03-29T20:30:51.438Z,101050.72
2023-03-29T20:33:21.672Z,101041.03
2023-03-29T20:35:51.634Z,101048.09
2023-03-29T20:38:20.395Z,101051.47
2023-03-29T20:40:51.477Z,101050.69
2023-03-29T20:43:20.404Z,101066.22
2023-03-29T20:45:54.031Z,101055.00
2023-03-29T20:48:25.055Z,101062.66
2023-03-29T20:50:54.651Z,101058.38
2023-03-29T20:53:23.597Z,101060.88
2023-03-29T20:55:54.053Z,101060.69
2023-03-29T20:58:23.255Z,101063.31
2023-03-29T21:00:54.251Z,101048.44
2023-03-29T21:03:24.785Z,101050.16
2023-03-29T21:05:58.954Z,101058.78
2023-03-29T21:08:28.670Z,101058.78
2023-03-29T21:11:00.750Z,101051.00
2023-03-29T21:13:34.290Z,101057.06
2023-03-29T21:16:07.412Z,101062.16
2023-03-29T21:18:38.769Z,101073.44
2023-03-29T21:21:09.985Z,101079.53
2023-03-29T21:23:41.184Z,101077.91
2023-03-29T21:26:13.869Z,101078.69
2023-03-29T21:28:44.882Z,101076.94
2023-03-29T21:31:16.007Z,101070.78
2023-03-29T21:33:47.056Z,101073.41
2023-03-29T21:36:17.406Z,101065.44
2023-03-29T21:38:48.646Z,101072.28
2023-03-29T21:41:22.669Z,101086.06
2023-03-29T21:43:53.818Z,101086.91
2023-03-29T21:46:26.028Z,101099.75
2023-03-29T21:48:58.263Z,101103.97
2023-03-29T21:51:29.354Z,101100.50
2023-03-29T21:54:00.212Z,101096.06
2023-03-29T21:56:32.803Z,101091.81
2023-03-29T21:59:03.560Z,101096.19
2023-03-29T22:01:34.460Z,101086.56
2023-03-29T22:04:04.679Z,101091.75
2023-03-29T22:06:35.671Z,101091.66
2023-03-29T22:09:06.609Z,101095.03
2023-03-29T22:11:39.366Z,101101.13
2023-03-29T22:14:10.949Z,101105.47
2023-03-29T22:16:42.370Z,101095.78
2023-03-29T22:19:13.687Z,101110.66
2023-03-29T22:21:44.793Z,101109.63
2023-03-29T22:24:15.684Z,101115.69
2023-03-29T22:26:48.758Z,101106.13
2023-03-29T22:29:17.077Z,101119.09
2023-03-29T22:31:47.552Z,101123.50
2023-03-29T22:34:18.403Z,101117.41
2023-03-29T22:36:50.195Z,101119.03
2023-03-29T22:39:21.167Z,101118.28
2023-03-29T22:41:53.917Z,101111.31
2023-03-29T22:44:25.880Z,101113.97
2023-03-29T22:46:57.043Z,101114.75
2023-03-29T22:49:28.872Z,101126.00
2023-03-29T22:52:03.542Z,101122.56
2023-03-29T22:54:36.317Z,101130.38
2023-03-29T22:57:11.996Z,101125.06
2023-03-29T22:59:43.022Z,101129.22
2023-03-29T23:02:13.989Z,101117.88
2023-03-29T23:04:45.374Z,101117.97
2023-03-29T23:07:16.671Z,101122.25
2023-03-29T23:09:47.671Z,101119.66
2023-03-29T23:12:20.389Z,101122.97
2023-03-29T23:14:53.812Z,101130.66
2023-03-29T23:17:24.816Z,101125.47
2023-03-29T23:19:55.836Z,101136.69
2023-03-29T23:22:26.642Z,101145.38
2023-03-29T23:24:57.194Z,101142.78
2023-03-29T23:27:29.833Z,101147.88
2023-03-29T23:30:00.361Z,101144.56
2023-03-29T23:32:31.473Z,101152.22
2023-03-29T23:35:01.308Z,101145.22
2023-03-29T23:37:32.750Z,101146.91
2023-03-29T23:40:03.452Z,101147.63
2023-03-29T23:42:37.896Z,101146.66
2023-03-29T23:45:10.574Z,101146.41
2023-03-29T23:47:42.327Z,101149.63
2023-03-29T23:50:15.034Z,101158.13
2023-03-29T23:52:47.865Z,101155.16
2023-03-29T23:55:19.577Z,101160.97
2023-03-29T23:57:52.248Z,101159.84
